sensor_id;sensor_type;location;lat;lon;timestamp;temperature;humidity
73547;SHT30;61807;48.384;-4.386;2022-08-30T00:02:30;19.13;70.88
73547;SHT30;61807;48.384;-4.386;2022-08-30T00:04:55;19.12;70.75
73547;SHT30;61807;48.384;-4.386;2022-08-30T00:07:22;19.10;70.83
73547;SHT30;61807;48.384;-4.386;2022-08-30T00:09:47;19.12;70.81
73547;SHT30;61807;48.384;-4.386;2022-08-30T00:12:13;19.10;70.85
73547;SHT30;61807;48.384;-4.386;2022-08-30T00:14:39;19.10;70.89
73547;SHT30;61807;48.384;-4.386;2022-08-30T00:17:05;19.12;70.88
73547;SHT30;61807;48.384;-4.386;2022-08-30T00:19:30;19.08;70.91
73547;SHT30;61807;48.384;-4.386;2022-08-30T00:21:55;19.06;70.95
73547;SHT30;61807;48.384;-4.386;2022-08-30T00:24:21;19.09;70.94
73547;SHT30;61807;48.384;-4.386;2022-08-30T00:26:46;19.10;70.97
73547;SHT30;61807;48.384;-4.386;2022-08-30T00:29:12;19.12;70.99
73547;SHT30;61807;48.384;-4.386;2022-08-30T00:31:38;19.09;71.05
73547;SHT30;61807;48.384;-4.386;2022-08-30T00:34:03;19.10;71.12
73547;SHT30;61807;48.384;-4.386;2022-08-30T00:36:29;19.10;71.09
73547;SHT30;61807;48.384;-4.386;2022-08-30T00:38:54;19.13;71.14
73547;SHT30;61807;48.384;-4.386;2022-08-30T00:41:21;19.13;71.08
73547;SHT30;61807;48.384;-4.386;2022-08-30T00:43:46;19.09;71.16
73547;SHT30;61807;48.384;-4.386;2022-08-30T00:46:12;19.12;71.20
73547;SHT30;61807;48.384;-4.386;2022-08-30T00:48:40;19.09;71.27
73547;SHT30;61807;48.384;-4.386;2022-08-30T00:51:08;19.13;71.32
73547;SHT30;61807;48.384;-4.386;2022-08-30T00:53:37;19.12;71.37
73547;SHT30;61807;48.384;-4.386;2022-08-30T00:56:04;19.15;71.41
73547;SHT30;61807;48.384;-4.386;2022-08-30T00:58:33;19.17;71.53
73547;SHT30;61807;48.384;-4.386;2022-08-30T01:01:02;19.15;71.50
73547;SHT30;61807;48.384;-4.386;2022-08-30T01:03:28;19.16;71.56
73547;SHT30;61807;48.384;-4.386;2022-08-30T01:05:55;19.19;71.55
73547;SHT30;61807;48.384;-4.386;2022-08-30T01:08:21;19.19;71.58
73547;SHT30;61807;48.384;-4.386;2022-08-30T01:10:49;19.19;71.70
73547;SHT30;61807;48.384;-4.386;2022-08-30T01:13:15;19.19;71.68
73547;SHT30;61807;48.384;-4.386;2022-08-30T01:15:42;19.17;71.63
73547;SHT30;61807;48.384;-4.386;2022-08-30T01:18:08;19.20;71.71
73547;SHT30;61807;48.384;-4.386;2022-08-30T01:20:45;19.22;71.79
73547;SHT30;61807;48.384;-4.386;2022-08-30T01:23:14;19.20;71.98
73547;SHT30;61807;48.384;-4.386;2022-08-30T01:25:42;19.16;71.88
73547;SHT30;61807;48.384;-4.386;2022-08-30T01:28:12;19.17;72.00
73547;SHT30;61807;48.384;-4.386;2022-08-30T01:30:38;19.19;71.98
73547;SHT30;61807;48.384;-4.386;2022-08-30T01:33:05;19.19;72.22
73547;SHT30;61807;48.384;-4.386;2022-08-30T01:35:37;19.17;72.25
73547;SHT30;61807;48.384;-4.386;2022-08-30T01:38:07;19.16;72.46
73547;SHT30;61807;48.384;-4.386;2022-08-30T01:40:33;19.15;72.54
73547;SHT30;61807;48.384;-4.386;2022-08-30T01:42:58;19.16;72.42
73547;SHT30;61807;48.384;-4.386;2022-08-30T01:45:24;19.16;72.41
73547;SHT30;61807;48.384;-4.386;2022-08-30T01:47:49;19.19;72.48
73547;SHT30;61807;48.384;-4.386;2022-08-30T01:50:15;19.19;72.40
73547;SHT30;61807;48.384;-4.386;2022-08-30T01:52:40;19.20;72.47
73547;SHT30;61807;48.384;-4.386;2022-08-30T01:55:07;19.22;72.71
73547;SHT30;61807;48.384;-4.386;2022-08-30T01:57:33;19.16;72.57
73547;SHT30;61807;48.384;-4.386;2022-08-30T01:59:58;19.17;72.48
73547;SHT30;61807;48.384;-4.386;2022-08-30T02:02:26;19.24;72.53
73547;SHT30;61807;48.384;-4.386;2022-08-30T02:04:54;19.19;72.58
73547;SHT30;61807;48.384;-4.386;2022-08-30T02:07:21;19.22;72.57
73547;SHT30;61807;48.384;-4.386;2022-08-30T02:09:48;19.19;72.44
73547;SHT30;61807;48.384;-4.386;2022-08-30T02:12:13;19.20;72.46
73547;SHT30;61807;48.384;-4.386;2022-08-30T02:14:39;19.19;72.53
73547;SHT30;61807;48.384;-4.386;2022-08-30T02:17:06;19.19;72.51
73547;SHT30;61807;48.384;-4.386;2022-08-30T02:19:32;19.20;72.51
73547;SHT30;61807;48.384;-4.386;2022-08-30T02:21:58;19.22;72.57
73547;SHT30;61807;48.384;-4.386;2022-08-30T02:24:23;19.19;72.53
73547;SHT30;61807;48.384;-4.386;2022-08-30T02:26:49;19.20;72.45
73547;SHT30;61807;48.384;-4.386;2022-08-30T02:29:17;19.17;72.58
73547;SHT30;61807;48.384;-4.386;2022-08-30T02:31:43;19.15;72.59
73547;SHT30;61807;48.384;-4.386;2022-08-30T02:34:08;19.17;72.56
73547;SHT30;61807;48.384;-4.386;2022-08-30T02:36:33;19.16;72.56
73547;SHT30;61807;48.384;-4.386;2022-08-30T02:38:59;19.17;72.49
73547;SHT30;61807;48.384;-4.386;2022-08-30T02:41:24;19.19;72.43
73547;SHT30;61807;48.384;-4.386;2022-08-30T02:43:50;19.20;72.39
73547;SHT30;61807;48.384;-4.386;2022-08-30T02:46:16;19.19;72.47
73547;SHT30;61807;48.384;-4.386;2022-08-30T02:48:42;19.19;72.45
73547;SHT30;61807;48.384;-4.386;2022-08-30T02:51:10;19.17;72.43
73547;SHT30;61807;48.384;-4.386;2022-08-30T02:53:36;19.17;72.43
73547;SHT30;61807;48.384;-4.386;2022-08-30T02:56:01;19.20;72.42
73547;SHT30;61807;48.384;-4.386;2022-08-30T02:58:27;19.17;72.43
73547;SHT30;61807;48.384;-4.386;2022-08-30T03:00:52;19.23;72.38
73547;SHT30;61807;48.384;-4.386;2022-08-30T03:03:18;19.23;72.44
73547;SHT30;61807;48.384;-4.386;2022-08-30T03:05:43;19.22;72.46
73547;SHT30;61807;48.384;-4.386;2022-08-30T03:08:09;19.20;72.48
73547;SHT30;61807;48.384;-4.386;2022-08-30T03:10:35;19.20;72.44
73547;SHT30;61807;48.384;-4.386;2022-08-30T03:13:01;19.22;72.40
73547;SHT30;61807;48.384;-4.386;2022-08-30T03:15:27;19.16;72.44
73547;SHT30;61807;48.384;-4.386;2022-08-30T03:17:54;19.17;72.49
73547;SHT30;61807;48.384;-4.386;2022-08-30T03:20:20;19.17;72.47
73547;SHT30;61807;48.384;-4.386;2022-08-30T03:22:46;19.19;72.53
73547;SHT30;61807;48.384;-4.386;2022-08-30T03:25:12;19.17;72.49
73547;SHT30;61807;48.384;-4.386;2022-08-30T03:27:37;19.16;72.52
73547;SHT30;61807;48.384;-4.386;2022-08-30T03:30:03;19.16;72.56
73547;SHT30;61807;48.384;-4.386;2022-08-30T03:32:29;19.19;72.55
73547;SHT30;61807;48.384;-4.386;2022-08-30T03:34:54;19.16;72.59
73547;SHT30;61807;48.384;-4.386;2022-08-30T03:37:19;19.16;72.59
73547;SHT30;61807;48.384;-4.386;2022-08-30T03:39:45;19.13;72.61
73547;SHT30;61807;48.384;-4.386;2022-08-30T03:42:10;19.15;72.60
73547;SHT30;61807;48.384;-4.386;2022-08-30T03:44:36;19.15;72.76
73547;SHT30;61807;48.384;-4.386;2022-08-30T03:47:03;19.10;72.69
73547;SHT30;61807;48.384;-4.386;2022-08-30T03:49:29;19.12;72.73
73547;SHT30;61807;48.384;-4.386;2022-08-30T03:51:55;19.10;72.76
73547;SHT30;61807;48.384;-4.386;2022-08-30T03:54:21;19.12;72.74
73547;SHT30;61807;48.384;-4.386;2022-08-30T03:56:46;19.08;72.96
73547;SHT30;61807;48.384;-4.386;2022-08-30T03:59:12;19.05;72.90
73547;SHT30;61807;48.384;-4.386;2022-08-30T04:01:37;19.05;72.95
73547;SHT30;61807;48.384;-4.386;2022-08-30T04:04:03;19.03;72.95
73547;SHT30;61807;48.384;-4.386;2022-08-30T04:06:28;19.03;73.04
73547;SHT30;61807;48.384;-4.386;2022-08-30T04:08:53;19.03;73.06
73547;SHT30;61807;48.384;-4.386;2022-08-30T04:11:19;18.99;73.10
73547;SHT30;61807;48.384;-4.386;2022-08-30T04:13:46;18.96;73.12
73547;SHT30;61807;48.384;-4.386;2022-08-30T04:16:13;18.96;73.25
73547;SHT30;61807;48.384;-4.386;2022-08-30T04:18:39;18.95;73.26
73547;SHT30;61807;48.384;-4.386;2022-08-30T04:21:04;18.94;73.28
73547;SHT30;61807;48.384;-4.386;2022-08-30T04:23:30;18.89;73.37
73547;SHT30;61807;48.384;-4.386;2022-08-30T04:25:56;18.87;73.47
73547;SHT30;61807;48.384;-4.386;2022-08-30T04:28:22;18.87;73.51
73547;SHT30;61807;48.384;-4.386;2022-08-30T04:30:48;18.85;73.56
73547;SHT30;61807;48.384;-4.386;2022-08-30T04:33:15;18.85;73.58
73547;SHT30;61807;48.384;-4.386;2022-08-30T04:35:42;18.81;73.65
73547;SHT30;61807;48.384;-4.386;2022-08-30T04:38:08;18.81;73.71
73547;SHT30;61807;48.384;-4.386;2022-08-30T04:40:34;18.79;73.72
73547;SHT30;61807;48.384;-4.386;2022-08-30T04:43:00;18.76;73.76
73547;SHT30;61807;48.384;-4.386;2022-08-30T04:45:25;18.75;73.84
73547;SHT30;61807;48.384;-4.386;2022-08-30T04:47:50;18.73;73.91
73547;SHT30;61807;48.384;-4.386;2022-08-30T04:50:18;18.73;73.98
73547;SHT30;61807;48.384;-4.386;2022-08-30T04:52:44;18.71;74.44
73547;SHT30;61807;48.384;-4.386;2022-08-30T04:55:11;18.71;74.12
73547;SHT30;61807;48.384;-4.386;2022-08-30T04:57:37;18.65;74.24
73547;SHT30;61807;48.384;-4.386;2022-08-30T05:00:07;18.69;74.31
73547;SHT30;61807;48.384;-4.386;2022-08-30T05:02:33;18.65;74.31
73547;SHT30;61807;48.384;-4.386;2022-08-30T05:05:00;18.64;74.41
73547;SHT30;61807;48.384;-4.386;2022-08-30T05:07:44;18.62;74.47
73547;SHT30;61807;48.384;-4.386;2022-08-30T05:10:10;18.58;74.73
73547;SHT30;61807;48.384;-4.386;2022-08-30T05:12:35;18.55;74.75
73547;SHT30;61807;48.384;-4.386;2022-08-30T05:15:01;18.57;74.84
73547;SHT30;61807;48.384;-4.386;2022-08-30T05:17:26;18.54;74.87
73547;SHT30;61807;48.384;-4.386;2022-08-30T05:19:52;18.55;74.92
73547;SHT30;61807;48.384;-4.386;2022-08-30T05:22:17;18.55;74.99
73547;SHT30;61807;48.384;-4.386;2022-08-30T05:24:43;18.52;75.00
73547;SHT30;61807;48.384;-4.386;2022-08-30T05:27:08;18.51;75.03
73547;SHT30;61807;48.384;-4.386;2022-08-30T05:29:34;18.54;75.07
73547;SHT30;61807;48.384;-4.386;2022-08-30T05:31:59;18.55;75.09
73547;SHT30;61807;48.384;-4.386;2022-08-30T05:34:26;18.55;75.20
73547;SHT30;61807;48.384;-4.386;2022-08-30T05:36:53;18.54;75.19
73547;SHT30;61807;48.384;-4.386;2022-08-30T05:39:18;18.50;75.26
73547;SHT30;61807;48.384;-4.386;2022-08-30T05:41:44;18.51;75.37
73547;SHT30;61807;48.384;-4.386;2022-08-30T05:44:10;18.52;75.45
73547;SHT30;61807;48.384;-4.386;2022-08-30T05:46:36;18.52;75.63
73547;SHT30;61807;48.384;-4.386;2022-08-30T05:49:03;18.52;75.54
73547;SHT30;61807;48.384;-4.386;2022-08-30T05:51:33;18.54;75.55
73547;SHT30;61807;48.384;-4.386;2022-08-30T05:53:59;18.55;75.73
73547;SHT30;61807;48.384;-4.386;2022-08-30T05:56:36;18.54;75.77
73547;SHT30;61807;48.384;-4.386;2022-08-30T05:59:04;18.57;75.89
73547;SHT30;61807;48.384;-4.386;2022-08-30T06:01:34;18.55;75.85
73547;SHT30;61807;48.384;-4.386;2022-08-30T06:04:01;18.58;75.96
73547;SHT30;61807;48.384;-4.386;2022-08-30T06:06:28;18.61;75.86
73547;SHT30;61807;48.384;-4.386;2022-08-30T06:08:54;18.62;75.99
73547;SHT30;61807;48.384;-4.386;2022-08-30T06:11:21;18.65;75.87
73547;SHT30;61807;48.384;-4.386;2022-08-30T06:13:48;18.65;75.93
73547;SHT30;61807;48.384;-4.386;2022-08-30T06:16:15;18.67;76.04
73547;SHT30;61807;48.384;-4.386;2022-08-30T06:18:41;18.69;76.10
73547;SHT30;61807;48.384;-4.386;2022-08-30T06:21:07;18.72;76.11
73547;SHT30;61807;48.384;-4.386;2022-08-30T06:23:33;18.75;76.09
73547;SHT30;61807;48.384;-4.386;2022-08-30T06:26:06;18.76;76.09
73547;SHT30;61807;48.384;-4.386;2022-08-30T06:28:33;18.76;76.09
73547;SHT30;61807;48.384;-4.386;2022-08-30T06:30:58;18.79;76.13
73547;SHT30;61807;48.384;-4.386;2022-08-30T06:33:24;18.78;76.16
73547;SHT30;61807;48.384;-4.386;2022-08-30T06:35:50;18.84;76.16
73547;SHT30;61807;48.384;-4.386;2022-08-30T06:38:15;18.85;76.15
73547;SHT30;61807;48.384;-4.386;2022-08-30T06:40:40;18.87;76.20
73547;SHT30;61807;48.384;-4.386;2022-08-30T06:43:06;18.91;76.20
73547;SHT30;61807;48.384;-4.386;2022-08-30T06:45:34;18.91;76.39
73547;SHT30;61807;48.384;-4.386;2022-08-30T06:48:00;18.92;76.40
73547;SHT30;61807;48.384;-4.386;2022-08-30T06:50:26;18.94;76.52
73547;SHT30;61807;48.384;-4.386;2022-08-30T06:52:52;18.94;76.40
73547;SHT30;61807;48.384;-4.386;2022-08-30T06:55:18;18.98;76.49
73547;SHT30;61807;48.384;-4.386;2022-08-30T06:57:44;18.99;76.47
73547;SHT30;61807;48.384;-4.386;2022-08-30T07:00:13;19.02;76.70
73547;SHT30;61807;48.384;-4.386;2022-08-30T07:02:40;19.03;76.88
73547;SHT30;61807;48.384;-4.386;2022-08-30T07:05:06;19.10;76.60
73547;SHT30;61807;48.384;-4.386;2022-08-30T07:07:33;19.13;76.58
73547;SHT30;61807;48.384;-4.386;2022-08-30T07:10:01;19.17;76.69
73547;SHT30;61807;48.384;-4.386;2022-08-30T07:12:27;19.20;77.35
73547;SHT30;61807;48.384;-4.386;2022-08-30T07:14:52;19.24;76.55
73547;SHT30;61807;48.384;-4.386;2022-08-30T07:17:18;19.30;76.51
73547;SHT30;61807;48.384;-4.386;2022-08-30T07:20:03;19.31;76.60
73547;SHT30;61807;48.384;-4.386;2022-08-30T07:22:30;19.36;76.48
73547;SHT30;61807;48.384;-4.386;2022-08-30T07:24:56;19.41;76.46
73547;SHT30;61807;48.384;-4.386;2022-08-30T07:27:21;19.46;76.66
73547;SHT30;61807;48.384;-4.386;2022-08-30T07:29:48;19.45;76.65
73547;SHT30;61807;48.384;-4.386;2022-08-30T07:32:13;19.50;76.64
73547;SHT30;61807;48.384;-4.386;2022-08-30T07:34:39;19.53;76.52
73547;SHT30;61807;48.384;-4.386;2022-08-30T07:37:04;19.58;76.50
73547;SHT30;61807;48.384;-4.386;2022-08-30T07:39:30;19.63;76.41
73547;SHT30;61807;48.384;-4.386;2022-08-30T07:41:55;19.67;76.41
73547;SHT30;61807;48.384;-4.386;2022-08-30T07:44:20;19.74;76.33
73547;SHT30;61807;48.384;-4.386;2022-08-30T07:46:46;19.79;76.24
73547;SHT30;61807;48.384;-4.386;2022-08-30T07:49:11;19.88;76.13
73547;SHT30;61807;48.384;-4.386;2022-08-30T07:51:38;19.96;75.95
73547;SHT30;61807;48.384;-4.386;2022-08-30T07:54:03;20.09;75.93
73547;SHT30;61807;48.384;-4.386;2022-08-30T07:56:29;20.18;75.65
73547;SHT30;61807;48.384;-4.386;2022-08-30T07:58:54;20.36;75.37
73547;SHT30;61807;48.384;-4.386;2022-08-30T08:01:20;20.52;75.25
73547;SHT30;61807;48.384;-4.386;2022-08-30T08:03:46;20.67;75.00
73547;SHT30;61807;48.384;-4.386;2022-08-30T08:06:14;20.83;74.62
73547;SHT30;61807;48.384;-4.386;2022-08-30T08:08:40;20.97;74.23
73547;SHT30;61807;48.384;-4.386;2022-08-30T08:11:15;21.12;74.28
73547;SHT30;61807;48.384;-4.386;2022-08-30T08:13:42;21.28;73.89
73547;SHT30;61807;48.384;-4.386;2022-08-30T08:16:08;21.35;73.62
73547;SHT30;61807;48.384;-4.386;2022-08-30T08:18:33;21.42;73.34
73547;SHT30;61807;48.384;-4.386;2022-08-30T08:21:00;21.49;73.29
73547;SHT30;61807;48.384;-4.386;2022-08-30T08:23:25;21.55;73.26
73547;SHT30;61807;48.384;-4.386;2022-08-30T08:25:51;21.59;73.17
73547;SHT30;61807;48.384;-4.386;2022-08-30T08:28:17;21.63;72.95
73547;SHT30;61807;48.384;-4.386;2022-08-30T08:30:43;21.65;72.84
73547;SHT30;61807;48.384;-4.386;2022-08-30T08:33:09;21.65;72.79
73547;SHT30;61807;48.384;-4.386;2022-08-30T08:35:37;21.67;72.77
73547;SHT30;61807;48.384;-4.386;2022-08-30T08:38:03;21.65;72.60
73547;SHT30;61807;48.384;-4.386;2022-08-30T08:40:34;21.67;72.64
73547;SHT30;61807;48.384;-4.386;2022-08-30T08:43:22;21.67;72.50
73547;SHT30;61807;48.384;-4.386;2022-08-30T08:51:13;21.69;72.45
73547;SHT30;61807;48.384;-4.386;2022-08-30T08:54:14;21.69;72.36
73547;SHT30;61807;48.384;-4.386;2022-08-30T08:56:40;21.72;72.24
73547;SHT30;61807;48.384;-4.386;2022-08-30T08:59:07;21.67;72.15
73547;SHT30;61807;48.384;-4.386;2022-08-30T09:01:34;21.67;72.08
73547;SHT30;61807;48.384;-4.386;2022-08-30T09:04:08;21.73;72.19
73547;SHT30;61807;48.384;-4.386;2022-08-30T09:09:07;21.72;72.34
73547;SHT30;61807;48.384;-4.386;2022-08-30T09:11:35;21.76;72.17
73547;SHT30;61807;48.384;-4.386;2022-08-30T09:14:03;21.75;72.15
73547;SHT30;61807;48.384;-4.386;2022-08-30T09:21:58;21.82;71.91
73547;SHT30;61807;48.384;-4.386;2022-08-30T09:24:24;21.80;71.96
73547;SHT30;61807;48.384;-4.386;2022-08-30T09:26:49;21.79;72.10
73547;SHT30;61807;48.384;-4.386;2022-08-30T09:29:17;21.79;71.86
73547;SHT30;61807;48.384;-4.386;2022-08-30T09:31:49;21.78;71.93
73547;SHT30;61807;48.384;-4.386;2022-08-30T09:34:20;21.79;71.53
73547;SHT30;61807;48.384;-4.386;2022-08-30T09:36:48;21.80;71.63
73547;SHT30;61807;48.384;-4.386;2022-08-30T09:42:14;21.80;71.59
73547;SHT30;61807;48.384;-4.386;2022-08-30T09:44:43;21.80;71.52
73547;SHT30;61807;48.384;-4.386;2022-08-30T09:47:19;21.82;71.43
73547;SHT30;61807;48.384;-4.386;2022-08-30T09:49:44;21.83;71.54
73547;SHT30;61807;48.384;-4.386;2022-08-30T10:06:09;21.88;71.40
73547;SHT30;61807;48.384;-4.386;2022-08-30T10:09:02;21.92;71.45
73547;SHT30;61807;48.384;-4.386;2022-08-30T10:19:48;21.97;71.55
73547;SHT30;61807;48.384;-4.386;2022-08-30T10:22:33;21.97;71.62
73547;SHT30;61807;48.384;-4.386;2022-08-30T10:25:18;21.97;71.67
73547;SHT30;61807;48.384;-4.386;2022-08-30T10:27:51;22.00;71.46
73547;SHT30;61807;48.384;-4.386;2022-08-30T10:30:18;22.03;71.45
73547;SHT30;61807;48.384;-4.386;2022-08-30T10:33:07;22.06;71.33
73547;SHT30;61807;48.384;-4.386;2022-08-30T10:35:46;22.10;71.28
73547;SHT30;61807;48.384;-4.386;2022-08-30T10:38:30;22.17;71.29
73547;SHT30;61807;48.384;-4.386;2022-08-30T10:44:00;22.30;71.08
73547;SHT30;61807;48.384;-4.386;2022-08-30T10:49:24;22.50;70.87
73547;SHT30;61807;48.384;-4.386;2022-08-30T10:57:43;22.88;70.46
73547;SHT30;61807;48.384;-4.386;2022-08-30T11:00:10;23.03;70.35
73547;SHT30;61807;48.384;-4.386;2022-08-30T11:05:57;23.30;69.81
73547;SHT30;61807;48.384;-4.386;2022-08-30T11:08:43;23.47;69.49
73547;SHT30;61807;48.384;-4.386;2022-08-30T11:14:08;23.78;69.01
73547;SHT30;61807;48.384;-4.386;2022-08-30T11:16:38;23.94;68.86
73547;SHT30;61807;48.384;-4.386;2022-08-30T11:19:18;24.12;68.51
73547;SHT30;61807;48.384;-4.386;2022-08-30T11:21:45;24.32;68.07
73547;SHT30;61807;48.384;-4.386;2022-08-30T11:29:32;25.01;66.35
73547;SHT30;61807;48.384;-4.386;2022-08-30T11:37:42;25.61;63.90
73547;SHT30;61807;48.384;-4.386;2022-08-30T11:42:39;25.94;63.71
73547;SHT30;61807;48.384;-4.386;2022-08-30T11:47:53;26.29;62.85
73547;SHT30;61807;48.384;-4.386;2022-08-30T11:50:26;26.52;62.16
73547;SHT30;61807;48.384;-4.386;2022-08-30T11:55:55;27.27;60.55
73547;SHT30;61807;48.384;-4.386;2022-08-30T12:04:41;29.07;56.68
73547;SHT30;61807;48.384;-4.386;2022-08-30T12:09:10;30.16;55.53
73547;SHT30;61807;48.384;-4.386;2022-08-30T12:14:04;30.84;53.01
73547;SHT30;61807;48.384;-4.386;2022-08-30T12:16:38;31.08;51.18
73547;SHT30;61807;48.384;-4.386;2022-08-30T12:19:25;31.33;52.13
73547;SHT30;61807;48.384;-4.386;2022-08-30T12:21:57;31.56;51.77
73547;SHT30;61807;48.384;-4.386;2022-08-30T12:24:45;31.81;51.53
73547;SHT30;61807;48.384;-4.386;2022-08-30T12:27:30;32.14;50.32
73547;SHT30;61807;48.384;-4.386;2022-08-30T12:30:03;32.31;50.28
73547;SHT30;61807;48.384;-4.386;2022-08-30T12:32:30;32.35;48.51
73547;SHT30;61807;48.384;-4.386;2022-08-30T12:35:04;32.48;49.34
73547;SHT30;61807;48.384;-4.386;2022-08-30T12:37:34;32.65;48.53
73547;SHT30;61807;48.384;-4.386;2022-08-30T12:42:41;32.96;47.97
73547;SHT30;61807;48.384;-4.386;2022-08-30T12:45:12;33.10;47.56
73547;SHT30;61807;48.384;-4.386;2022-08-30T12:47:45;33.31;47.75
73547;SHT30;61807;48.384;-4.386;2022-08-30T12:50:18;33.54;47.08
73547;SHT30;61807;48.384;-4.386;2022-08-30T12:52:47;33.65;46.70
73547;SHT30;61807;48.384;-4.386;2022-08-30T12:55:18;33.72;46.36
73547;SHT30;61807;48.384;-4.386;2022-08-30T12:57:56;33.82;45.74
73547;SHT30;61807;48.384;-4.386;2022-08-30T13:02:51;33.89;45.86
73547;SHT30;61807;48.384;-4.386;2022-08-30T13:08:17;34.04;45.41
73547;SHT30;61807;48.384;-4.386;2022-08-30T13:15:56;33.79;43.69
73547;SHT30;61807;48.384;-4.386;2022-08-30T13:18:27;33.58;44.96
73547;SHT30;61807;48.384;-4.386;2022-08-30T13:21:18;33.35;45.28
73547;SHT30;61807;48.384;-4.386;2022-08-30T13:23:49;32.99;45.05
73547;SHT30;61807;48.384;-4.386;2022-08-30T13:26:15;32.73;46.25
73547;SHT30;61807;48.384;-4.386;2022-08-30T13:28:58;32.63;46.46
73547;SHT30;61807;48.384;-4.386;2022-08-30T13:31:26;32.63;46.60
73547;SHT30;61807;48.384;-4.386;2022-08-30T13:33:52;32.53;46.16
73547;SHT30;61807;48.384;-4.386;2022-08-30T13:36:20;32.52;46.73
73547;SHT30;61807;48.384;-4.386;2022-08-30T13:38:46;32.63;46.48
73547;SHT30;61807;48.384;-4.386;2022-08-30T13:41:13;32.73;46.26
73547;SHT30;61807;48.384;-4.386;2022-08-30T13:43:38;32.83;46.11
73547;SHT30;61807;48.384;-4.386;2022-08-30T13:46:04;32.90;46.05
73547;SHT30;61807;48.384;-4.386;2022-08-30T13:48:31;33.00;45.79
73547;SHT30;61807;48.384;-4.386;2022-08-30T13:50:57;33.09;45.58
73547;SHT30;61807;48.384;-4.386;2022-08-30T13:53:22;33.09;45.77
73547;SHT30;61807;48.384;-4.386;2022-08-30T13:55:48;32.84;45.79
73547;SHT30;61807;48.384;-4.386;2022-08-30T13:58:13;32.75;46.03
73547;SHT30;61807;48.384;-4.386;2022-08-30T14:00:41;32.69;46.06
73547;SHT30;61807;48.384;-4.386;2022-08-30T14:03:06;32.62;46.19
73547;SHT30;61807;48.384;-4.386;2022-08-30T14:05:35;32.66;45.88
73547;SHT30;61807;48.384;-4.386;2022-08-30T14:08:00;32.73;45.63
73547;SHT30;61807;48.384;-4.386;2022-08-30T14:10:28;32.80;45.91
73547;SHT30;61807;48.384;-4.386;2022-08-30T14:12:53;32.96;45.83
73547;SHT30;61807;48.384;-4.386;2022-08-30T14:15:19;33.09;45.07
73547;SHT30;61807;48.384;-4.386;2022-08-30T14:17:44;33.20;45.50
73547;SHT30;61807;48.384;-4.386;2022-08-30T14:20:11;33.34;44.97
73547;SHT30;61807;48.384;-4.386;2022-08-30T14:22:37;33.39;45.02
73547;SHT30;61807;48.384;-4.386;2022-08-30T14:25:03;33.49;45.34
73547;SHT30;61807;48.384;-4.386;2022-08-30T14:27:29;33.51;45.05
73547;SHT30;61807;48.384;-4.386;2022-08-30T14:29:55;33.55;44.85
73547;SHT30;61807;48.384;-4.386;2022-08-30T14:32:21;33.47;44.68
73547;SHT30;61807;48.384;-4.386;2022-08-30T14:34:47;33.14;45.21
73547;SHT30;61807;48.384;-4.386;2022-08-30T14:37:13;32.63;45.87
73547;SHT30;61807;48.384;-4.386;2022-08-30T14:39:38;32.24;46.32
73547;SHT30;61807;48.384;-4.386;2022-08-30T14:42:04;32.01;46.58
73547;SHT30;61807;48.384;-4.386;2022-08-30T14:44:30;31.78;47.08
73547;SHT30;61807;48.384;-4.386;2022-08-30T14:46:56;31.86;47.52
73547;SHT30;61807;48.384;-4.386;2022-08-30T14:49:22;31.97;46.91
73547;SHT30;61807;48.384;-4.386;2022-08-30T14:51:48;31.86;46.82
73547;SHT30;61807;48.384;-4.386;2022-08-30T14:54:19;31.73;47.06
73547;SHT30;61807;48.384;-4.386;2022-08-30T14:56:46;31.67;47.36
73547;SHT30;61807;48.384;-4.386;2022-08-30T14:59:11;31.62;47.53
73547;SHT30;61807;48.384;-4.386;2022-08-30T15:01:38;31.56;47.72
73547;SHT30;61807;48.384;-4.386;2022-08-30T15:04:05;31.45;47.92
73547;SHT30;61807;48.384;-4.386;2022-08-30T15:06:31;31.28;48.15
73547;SHT30;61807;48.384;-4.386;2022-08-30T15:08:57;31.09;48.53
73547;SHT30;61807;48.384;-4.386;2022-08-30T15:11:23;30.89;48.92
73547;SHT30;61807;48.384;-4.386;2022-08-30T15:13:51;30.68;49.09
73547;SHT30;61807;48.384;-4.386;2022-08-30T15:16:29;30.40;49.71
73547;SHT30;61807;48.384;-4.386;2022-08-30T15:18:56;30.20;49.87
73547;SHT30;61807;48.384;-4.386;2022-08-30T15:21:25;29.89;50.58
73547;SHT30;61807;48.384;-4.386;2022-08-30T15:23:51;29.58;51.12
73547;SHT30;61807;48.384;-4.386;2022-08-30T15:26:17;29.24;51.88
73547;SHT30;61807;48.384;-4.386;2022-08-30T15:28:43;29.00;52.56
73547;SHT30;61807;48.384;-4.386;2022-08-30T15:31:09;28.79;53.10
73547;SHT30;61807;48.384;-4.386;2022-08-30T15:33:35;28.56;53.20
73547;SHT30;61807;48.384;-4.386;2022-08-30T15:36:01;28.36;53.79
73547;SHT30;61807;48.384;-4.386;2022-08-30T15:38:27;28.21;53.96
73547;SHT30;61807;48.384;-4.386;2022-08-30T15:40:53;28.08;54.28
73547;SHT30;61807;48.384;-4.386;2022-08-30T15:43:18;27.93;54.44
73547;SHT30;61807;48.384;-4.386;2022-08-30T15:45:44;27.81;54.88
73547;SHT30;61807;48.384;-4.386;2022-08-30T15:48:09;27.76;55.21
73547;SHT30;61807;48.384;-4.386;2022-08-30T15:50:36;27.66;55.29
73547;SHT30;61807;48.384;-4.386;2022-08-30T15:53:02;27.57;55.44
73547;SHT30;61807;48.384;-4.386;2022-08-30T15:55:27;27.50;55.59
73547;SHT30;61807;48.384;-4.386;2022-08-30T15:57:53;27.35;55.85
73547;SHT30;61807;48.384;-4.386;2022-08-30T16:00:18;27.23;56.18
73547;SHT30;61807;48.384;-4.386;2022-08-30T16:02:44;27.12;56.37
73547;SHT30;61807;48.384;-4.386;2022-08-30T16:05:12;27.05;56.66
73547;SHT30;61807;48.384;-4.386;2022-08-30T16:07:38;26.99;56.83
73547;SHT30;61807;48.384;-4.386;2022-08-30T16:10:04;27.00;56.88
73547;SHT30;61807;48.384;-4.386;2022-08-30T16:12:29;26.96;57.17
73547;SHT30;61807;48.384;-4.386;2022-08-30T16:14:54;26.95;57.33
73547;SHT30;61807;48.384;-4.386;2022-08-30T16:17:20;26.91;57.54
73547;SHT30;61807;48.384;-4.386;2022-08-30T16:19:48;26.85;57.42
73547;SHT30;61807;48.384;-4.386;2022-08-30T16:22:13;26.81;57.61
73547;SHT30;61807;48.384;-4.386;2022-08-30T16:24:39;26.74;57.86
73547;SHT30;61807;48.384;-4.386;2022-08-30T16:27:05;26.72;57.88
73547;SHT30;61807;48.384;-4.386;2022-08-30T16:29:30;26.69;58.00
73547;SHT30;61807;48.384;-4.386;2022-08-30T16:31:56;26.64;58.15
73547;SHT30;61807;48.384;-4.386;2022-08-30T16:34:21;26.60;58.19
73547;SHT30;61807;48.384;-4.386;2022-08-30T16:36:46;26.58;58.24
73547;SHT30;61807;48.384;-4.386;2022-08-30T16:39:13;26.61;58.49
73547;SHT30;61807;48.384;-4.386;2022-08-30T16:41:39;26.62;59.14
73547;SHT30;61807;48.384;-4.386;2022-08-30T16:44:05;26.58;58.77
73547;SHT30;61807;48.384;-4.386;2022-08-30T16:46:32;26.50;58.53
73547;SHT30;61807;48.384;-4.386;2022-08-30T16:48:58;26.34;58.73
73547;SHT30;61807;48.384;-4.386;2022-08-30T16:51:27;26.27;59.05
73547;SHT30;61807;48.384;-4.386;2022-08-30T16:53:55;26.24;59.15
73547;SHT30;61807;48.384;-4.386;2022-08-30T16:56:21;26.14;59.45
73547;SHT30;61807;48.384;-4.386;2022-08-30T16:58:48;26.06;59.53